Time;durP1;ratioP1;P1;durP2;ratioP2;P2;SDS_P1;SDS_P2;PMS_P1;PMS_P2;Temp;Humidity;BMP_temperature;BMP_pressure;BME280_temperature;BME280_humidity;BME280_pressure;Samples;Min_cycle;Max_cycle;Signal;HPM_P1;HPM_P2
2021/06/17 00:01:59;;;;;;;5.20;4.70;;;17.80;99.90;;;;;;6225211;22;20000;-94
2021/06/17 00:04:25;;;;;;;7.15;4.72;;;17.80;99.90;;;;;;6225008;23;20020;-94
2021/06/17 00:06:50;;;;;;;5.47;4.57;;;17.80;99.90;;;;;;6224578;22;20046;-95
2021/06/17 00:09:17;;;;;;;4.82;4.32;;;17.80;99.90;;;;;;6224953;23;19992;-94
2021/06/17 00:11:43;;;;;;;4.38;3.67;;;17.90;99.90;;;;;;6225768;23;19992;-93
2021/06/17 00:14:09;;;;;;;6.78;4.80;;;17.90;99.90;;;;;;6227517;23;20001;-94
2021/06/17 00:16:35;;;;;;;4.95;4.40;;;18.00;99.90;;;;;;6227115;23;20009;-94
2021/06/17 00:19:02;;;;;;;4.85;3.65;;;18.00;99.90;;;;;;6229216;23;20050;-93
2021/06/17 00:21:28;;;;;;;4.28;3.88;;;18.00;99.90;;;;;;6226448;22;20028;-94
2021/06/17 00:23:54;;;;;;;4.63;3.97;;;18.10;99.90;;;;;;6226185;23;20008;-94
2021/06/17 00:26:20;;;;;;;4.05;3.40;;;18.10;99.90;;;;;;6227608;23;20020;-94
2021/06/17 00:28:46;;;;;;;4.13;3.50;;;18.20;99.90;;;;;;6229584;23;20000;-94
2021/06/17 00:31:12;;;;;;;3.90;3.33;;;18.30;99.90;;;;;;6229674;23;20035;-94
2021/06/17 00:33:38;;;;;;;5.57;4.13;;;18.30;99.90;;;;;;6225904;23;20346;-94
2021/06/17 00:36:04;;;;;;;4.20;3.80;;;18.30;99.90;;;;;;6230294;23;20000;-95
2021/06/17 00:38:32;;;;;;;4.88;3.85;;;18.40;99.90;;;;;;6228332;23;20050;-94
2021/06/17 00:40:58;;;;;;;4.57;4.15;;;18.30;99.70;;;;;;6224259;23;19996;-94
2021/06/17 00:43:24;;;;;;;4.82;4.15;;;18.30;99.50;;;;;;6226103;23;20001;-95
2021/06/17 00:45:51;;;;;;;4.88;4.38;;;18.30;99.40;;;;;;6229547;23;20075;-94
2021/06/17 00:48:21;;;;;;;5.30;4.75;;;18.30;99.40;;;;;;6229330;22;20008;-94
2021/06/17 00:50:51;;;;;;;4.57;3.97;;;18.30;99.10;;;;;;6222742;23;19997;-93
2021/06/17 00:53:21;;;;;;;4.28;3.78;;;18.30;99.00;;;;;;6224505;23;19996;-93
2021/06/17 00:55:47;;;;;;;4.53;3.83;;;18.30;98.90;;;;;;6223430;23;20045;-93
2021/06/17 00:58:13;;;;;;;5.32;4.40;;;18.30;98.90;;;;;;6222892;23;20055;-93
2021/06/17 01:00:40;;;;;;;4.68;4.15;;;18.20;98.90;;;;;;6221269;23;20056;-95
2021/06/17 01:03:06;;;;;;;4.95;3.78;;;18.20;98.90;;;;;;6224854;23;20053;-95
2021/06/17 01:05:32;;;;;;;5.47;4.40;;;18.20;98.90;;;;;;6220670;23;19993;-94
2021/06/17 01:08:07;;;;;;;5.60;4.38;;;18.10;98.90;;;;;;6220533;23;20011;-94
2021/06/17 01:10:59;;;;;;;5.18;4.55;;;18.10;99.00;;;;;;6220984;23;20004;-94
2021/06/17 01:13:50;;;;;;;5.05;4.22;;;18.10;99.00;;;;;;6220569;23;19996;-94
2021/06/17 01:16:51;;;;;;;5.25;4.35;;;18.10;99.00;;;;;;6220900;23;19997;-93
2021/06/17 01:19:31;;;;;;;4.40;3.92;;;18.10;98.90;;;;;;6221222;23;19996;-94
2021/06/17 01:22:15;;;;;;;4.60;4.07;;;18.10;98.90;;;;;;6224023;23;19997;-95
2021/06/17 01:24:44;;;;;;;;;;;18.10;99.10;;;;;;6222605;23;20003;-94
2021/06/17 01:27:32;;;;;;;5.22;4.00;;;18.00;99.20;;;;;;6217096;22;19908;-95
2021/06/17 01:30:12;;;;;;;4.53;3.95;;;18.00;99.10;;;;;;6222352;23;19993;-94
2021/06/17 01:32:42;;;;;;;5.43;4.43;;;18.00;99.10;;;;;;6223418;23;19997;-94
2021/06/17 01:35:10;;;;;;;5.07;3.90;;;18.00;99.20;;;;;;6220292;23;19992;-93
2021/06/17 01:37:39;;;;;;;5.32;4.18;;;17.90;99.20;;;;;;6221471;23;20005;-93
2021/06/17 01:40:06;;;;;;;6.50;5.53;;;17.90;99.20;;;;;;6220762;23;19997;-94
2021/06/17 01:42:33;;;;;;;6.78;5.68;;;17.90;99.40;;;;;;6222680;23;20052;-93
2021/06/17 01:45:01;;;;;;;6.53;5.18;;;17.90;99.50;;;;;;6219071;23;20008;-94
2021/06/17 01:47:28;;;;;;;6.00;5.05;;;17.90;99.70;;;;;;6219012;23;20000;-95
2021/06/17 01:49:55;;;;;;;6.65;5.60;;;17.90;99.70;;;;;;6220172;23;19997;-93
2021/06/17 01:52:24;;;;;;;6.85;5.63;;;17.80;99.80;;;;;;6221418;23;19997;-94
2021/06/17 01:54:51;;;;;;;5.53;5.03;;;17.90;99.90;;;;;;6218688;23;19992;-94
2021/06/17 01:57:20;;;;;;;6.47;4.97;;;17.80;99.80;;;;;;6222138;23;20000;-95
2021/06/17 01:59:51;;;;;;;4.60;3.95;;;17.80;99.90;;;;;;6224234;22;20382;-94
2021/06/17 02:02:18;;;;;;;5.97;4.13;;;17.90;99.90;;;;;;6227680;23;20348;-93
2021/06/17 02:04:50;;;;;;;6.25;5.00;;;17.90;99.90;;;;;;6224661;23;20050;-94
2021/06/17 02:07:19;;;;;;;6.55;5.05;;;17.90;99.90;;;;;;6226121;23;20027;-93
2021/06/17 02:09:47;;;;;;;5.35;4.70;;;17.90;99.90;;;;;;6223187;23;19989;-93
2021/06/17 02:12:13;;;;;;;6.15;4.80;;;17.90;99.80;;;;;;6225098;23;19996;-94
2021/06/17 02:14:40;;;;;;;5.85;5.13;;;17.90;99.80;;;;;;6223981;23;20003;-93
2021/06/17 02:17:07;;;;;;;6.07;4.35;;;17.90;99.80;;;;;;6227572;23;20009;-94
2021/06/17 02:19:36;;;;;;;5.65;4.72;;;18.00;99.90;;;;;;6221623;23;20003;-94
2021/06/17 02:22:03;;;;;;;5.10;4.55;;;18.00;99.80;;;;;;6223485;22;20024;-94
2021/06/17 02:24:33;;;;;;;4.43;3.80;;;18.00;99.80;;;;;;6225151;23;19997;-93
2021/06/17 02:27:05;;;;;;;4.68;3.88;;;18.00;99.70;;;;;;6219971;23;20013;-93
2021/06/17 02:29:38;;;;;;;4.28;3.88;;;18.00;99.70;;;;;;6223027;23;19993;-93
2021/06/17 02:32:07;;;;;;;5.05;4.05;;;18.00;99.80;;;;;;6220786;23;20045;-94
2021/06/17 02:34:34;;;;;;;5.78;4.47;;;18.10;99.70;;;;;;6220049;23;20079;-93
2021/06/17 02:37:01;;;;;;;5.88;4.72;;;18.10;99.70;;;;;;6226123;23;20054;-94
2021/06/17 02:39:28;;;;;;;5.38;4.50;;;18.10;99.70;;;;;;6225659;23;20000;-95
2021/06/17 02:41:57;;;;;;;5.22;4.35;;;18.10;99.60;;;;;;6225974;23;20004;-93
2021/06/17 02:44:25;;;;;;;7.07;5.07;;;18.20;99.60;;;;;;6225953;23;20403;-93
2021/06/17 02:46:52;;;;;;;5.82;4.63;;;18.20;99.60;;;;;;6226362;23;20011;-95
2021/06/17 02:49:18;;;;;;;5.53;4.60;;;18.20;99.50;;;;;;6222974;23;20051;-94
2021/06/17 02:51:45;;;;;;;6.00;4.90;;;18.20;99.40;;;;;;6223394;23;20007;-94
2021/06/17 02:54:10;;;;;;;4.65;4.18;;;18.30;99.40;;;;;;6220269;23;20021;-94
2021/06/17 02:56:39;;;;;;;4.88;4.38;;;18.30;99.30;;;;;;6224720;23;20058;-94
2021/06/17 02:59:33;;;;;;;3.97;3.58;;;18.30;99.20;;;;;;6224465;23;19988;-94
2021/06/17 03:02:05;;;;;;;5.40;4.75;;;18.30;99.20;;;;;;6227150;23;20001;-94
2021/06/17 03:05:01;;;;;;;6.03;4.40;;;18.30;99.20;;;;;;6225683;23;19997;-93
2021/06/17 03:07:34;;;;;;;5.53;4.95;;;18.40;99.20;;;;;;6222512;23;20000;-94
2021/06/17 03:10:06;;;;;;;4.90;4.32;;;18.40;99.20;;;;;;6226258;23;20015;-94
2021/06/17 03:12:33;;;;;;;6.05;5.35;;;18.50;99.20;;;;;;6225422;23;20052;-94
2021/06/17 03:15:02;;;;;;;6.47;4.82;;;18.50;99.00;;;;;;6224188;23;19993;-94
2021/06/17 03:17:30;;;;;;;5.43;4.93;;;18.60;99.00;;;;;;6225485;23;20009;-95
2021/06/17 03:20:00;;;;;;;6.10;5.18;;;18.70;98.80;;;;;;6229264;23;20022;-94
2021/06/17 03:22:29;;;;;;;6.45;5.03;;;18.70;98.50;;;;;;6228857;23;20049;-93
2021/06/17 03:24:59;;;;;;;6.57;5.10;;;18.70;98.60;;;;;;6232706;23;20001;-94
2021/06/17 03:27:25;;;;;;;5.05;4.35;;;18.70;98.40;;;;;;6235141;23;20021;-95
2021/06/17 03:29:52;;;;;;;6.43;5.40;;;18.80;98.60;;;;;;6236468;23;19996;-92
2021/06/17 03:32:20;;;;;;;5.82;4.93;;;18.80;98.30;;;;;;6233495;23;20022;-94
2021/06/17 03:34:48;;;;;;;5.25;4.75;;;18.90;98.20;;;;;;6234388;23;19999;-95
2021/06/17 03:37:16;;;;;;;4.32;3.88;;;18.90;98.20;;;;;;6230444;23;20009;-94
2021/06/17 03:39:44;;;;;;;5.32;4.55;;;19.00;98.10;;;;;;6228428;23;19993;-95
2021/06/17 03:42:11;;;;;;;4.68;4.22;;;19.00;97.90;;;;;;6232830;23;20004;-93
2021/06/17 03:44:39;;;;;;;6.00;4.70;;;19.10;98.00;;;;;;6230817;23;20016;-93
2021/06/17 03:47:11;;;;;;;6.57;5.30;;;19.20;97.80;;;;;;6228308;23;20003;-95
2021/06/17 03:49:38;;;;;;;4.97;4.05;;;19.20;97.70;;;;;;6232175;23;20001;-93
2021/06/17 03:52:07;;;;;;;6.00;4.97;;;19.30;97.30;;;;;;6233783;23;20008;-93
2021/06/17 03:54:33;;;;;;;4.40;4.00;;;19.30;97.30;;;;;;6233890;23;19984;-94
2021/06/17 03:57:02;;;;;;;5.65;4.88;;;19.40;97.10;;;;;;6230014;23;20081;-93
2021/06/17 03:59:52;;;;;;;5.43;4.53;;;19.40;97.10;;;;;;6232812;22;19996;-92
2021/06/17 04:02:18;;;;;;;5.93;4.45;;;19.50;96.50;;;;;;6209871;23;20003;-95
2021/06/17 04:04:45;;;;;;;5.38;4.53;;;19.60;96.60;;;;;;6234336;23;20001;-95
2021/06/17 04:07:15;;;;;;;5.68;4.28;;;19.70;96.40;;;;;;6234475;22;20060;-95
2021/06/17 04:09:43;;;;;;;5.18;4.43;;;19.70;96.30;;;;;;6233114;23;19997;-95
2021/06/17 04:12:12;;;;;;;4.32;3.60;;;19.80;95.90;;;;;;6235642;23;19992;-94
2021/06/17 04:14:45;;;;;;;4.50;4.10;;;19.90;96.30;;;;;;6232148;23;20007;-94
2021/06/17 04:17:21;;;;;;;5.28;4.25;;;20.00;96.10;;;;;;6229946;23;20009;-94
2021/06/17 04:19:48;;;;;;;5.75;4.75;;;20.10;95.40;;;;;;6230690;23;19993;-95
2021/06/17 04:22:16;;;;;;;5.63;4.80;;;20.20;95.00;;;;;;6226981;23;20307;-94
2021/06/17 04:24:48;;;;;;;5.45;4.75;;;20.30;94.40;;;;;;6230585;23;19996;-94
2021/06/17 04:27:15;;;;;;;5.18;4.68;;;20.30;94.20;;;;;;6231088;23;20041;-95
2021/06/17 04:29:42;;;;;;;5.40;3.97;;;20.40;94.20;;;;;;6229454;23;20014;-94
2021/06/17 04:32:10;;;;;;;4.80;4.22;;;20.50;94.50;;;;;;6228221;23;19997;-94
2021/06/17 04:34:39;;;;;;;5.75;4.93;;;20.70;94.30;;;;;;6225580;23;20001;-94
2021/06/17 04:37:09;;;;;;;6.05;4.75;;;20.70;93.20;;;;;;6227507;23;20004;-95
2021/06/17 04:39:36;;;;;;;4.28;3.88;;;20.80;92.80;;;;;;6226199;23;19999;-94
2021/06/17 04:42:02;;;;;;;4.50;4.10;;;20.80;93.10;;;;;;6201642;23;20001;-94
2021/06/17 04:44:29;;;;;;;4.65;4.15;;;20.90;93.20;;;;;;6224458;23;20299;-93
2021/06/17 04:46:57;;;;;;;5.03;4.40;;;21.00;92.70;;;;;;6226359;23;20001;-95
2021/06/17 04:49:24;;;;;;;4.40;3.83;;;21.10;92.50;;;;;;6228484;23;19996;-95
2021/06/17 04:51:52;;;;;;;4.93;4.15;;;21.20;92.20;;;;;;6225015;23;19992;-94
2021/06/17 04:54:18;;;;;;;5.07;4.55;;;21.30;92.20;;;;;;6227137;23;20000;-94
2021/06/17 04:56:48;;;;;;;4.45;4.05;;;21.40;91.70;;;;;;6230597;23;20009;-95
2021/06/17 04:59:15;;;;;;;5.07;4.57;;;21.50;91.30;;;;;;6230463;23;20005;-95
2021/06/17 05:01:41;;;;;;;4.88;4.38;;;21.50;91.00;;;;;;6231857;23;20052;-95
2021/06/17 05:04:08;;;;;;;5.05;4.10;;;21.50;90.50;;;;;;6230768;22;20008;-95
2021/06/17 05:06:40;;;;;;;4.25;3.85;;;21.60;90.60;;;;;;6231913;23;20004;-96
2021/06/17 05:11:55;;;;;;;4.53;4.07;;;21.80;90.40;;;;;;6230916;23;20039;-95
2021/06/17 05:14:22;;;;;;;5.50;4.30;;;21.80;90.50;;;;;;6230192;22;20045;-96
2021/06/17 05:16:48;;;;;;;5.15;4.47;;;21.80;90.00;;;;;;6231410;23;20004;-95
2021/06/17 05:19:15;;;;;;;4.60;4.20;;;21.80;90.10;;;;;;6230039;23;20009;-94
2021/06/17 05:21:54;;;;;;;5.20;4.70;;;21.90;89.70;;;;;;6230917;23;20027;-95
2021/06/17 05:24:21;;;;;;;4.20;3.80;;;21.90;87.80;;;;;;6230003;23;20369;-95
2021/06/17 05:26:46;;;;;;;5.50;5.00;;;21.90;89.80;;;;;;6229106;22;20016;-94
2021/06/17 05:29:21;;;;;;;4.60;4.20;;;22.00;89.40;;;;;;6230594;22;20489;-95
2021/06/17 05:31:47;;;;;;;4.20;3.80;;;22.10;89.30;;;;;;6229105;23;20416;-95
2021/06/17 05:36:44;;;;;;;4.97;4.30;;;22.50;89.30;;;;;;6170164;23;20054;-94
2021/06/17 05:39:10;;;;;;;5.07;4.57;;;22.70;88.40;;;;;;6142065;23;20005;-95
2021/06/17 05:41:36;;;;;;;5.78;4.32;;;22.80;88.00;;;;;;6139877;23;20058;-95
2021/06/17 05:44:04;;;;;;;4.88;4.28;;;22.90;86.20;;;;;;6142607;23;20012;-95
2021/06/17 05:46:33;;;;;;;4.97;3.95;;;23.00;85.80;;;;;;6146059;23;20005;-95
2021/06/17 05:49:00;;;;;;;4.63;4.20;;;22.90;86.00;;;;;;6148288;23;20071;-95
2021/06/17 05:51:31;;;;;;;5.25;4.22;;;22.90;85.20;;;;;;6148078;23;20055;-95
2021/06/17 05:54:00;;;;;;;4.57;4.18;;;22.90;85.20;;;;;;6148755;23;20002;-95
2021/06/17 05:56:29;;;;;;;5.07;4.57;;;22.90;84.50;;;;;;6145848;23;20022;-96
2021/06/17 05:58:55;;;;;;;6.03;4.90;;;22.80;84.50;;;;;;6145723;23;20025;-96
2021/06/17 06:01:21;;;;;;;4.82;4.32;;;22.80;84.20;;;;;;6140869;23;20005;-96
2021/06/17 06:03:50;;;;;;;4.72;4.25;;;22.80;84.60;;;;;;6139364;23;20007;-96
2021/06/17 06:06:18;;;;;;;5.03;4.20;;;22.80;83.90;;;;;;6140449;23;20012;-96
2021/06/17 06:08:52;;;;;;;4.95;4.40;;;22.80;83.70;;;;;;6143673;23;20014;-95
2021/06/17 06:11:18;;;;;;;5.07;4.20;;;22.80;84.00;;;;;;6138290;23;20016;-95
2021/06/17 06:13:46;;;;;;;5.00;4.40;;;22.80;83.40;;;;;;6137598;23;20051;-95
2021/06/17 06:16:13;;;;;;;4.00;3.60;;;22.90;83.70;;;;;;6142174;23;20006;-96
2021/06/17 06:18:44;;;;;;;5.82;3.78;;;23.00;83.90;;;;;;6146212;23;20005;-95
2021/06/17 06:21:10;;;;;;;3.67;3.38;;;23.20;83.70;;;;;;6144877;23;20006;-94
2021/06/17 06:23:41;;;;;;;4.47;3.70;;;23.40;83.40;;;;;;6145597;23;20029;-96
2021/06/17 06:26:09;;;;;;;4.07;3.65;;;23.60;82.70;;;;;;6143550;23;20072;-96
2021/06/17 06:28:35;;;;;;;4.57;3.63;;;23.80;82.30;;;;;;6142813;23;20078;-96
2021/06/17 06:31:01;;;;;;;3.97;3.58;;;24.00;81.20;;;;;;6143472;23;20053;-96
2021/06/17 06:33:29;;;;;;;4.00;3.60;;;24.00;80.80;;;;;;6179513;23;20070;-96
2021/06/17 06:35:55;;;;;;;4.20;3.72;;;24.10;80.10;;;;;;6141410;22;20020;-96
2021/06/17 06:38:21;;;;;;;3.88;3.58;;;24.20;79.90;;;;;;6157807;23;20010;-96
2021/06/17 06:40:47;;;;;;;4.20;3.58;;;24.30;79.60;;;;;;6157890;23;20009;-96
2021/06/17 06:43:15;;;;;;;4.40;4.00;;;24.30;79.80;;;;;;6165457;22;20008;-95
2021/06/17 06:45:41;;;;;;;4.35;3.95;;;24.30;78.00;;;;;;6163749;23;20107;-96
2021/06/17 06:48:08;;;;;;;4.88;4.38;;;24.30;77.90;;;;;;6162491;22;19994;-95
2021/06/17 06:50:34;;;;;;;4.63;4.13;;;24.30;78.20;;;;;;6159060;23;20009;-95
2021/06/17 06:53:01;;;;;;;4.78;3.92;;;24.30;78.10;;;;;;6158605;23;20029;-95
2021/06/17 06:55:27;;;;;;;6.03;4.30;;;24.40;78.40;;;;;;6158759;23;20051;-95
2021/06/17 06:57:56;;;;;;;5.18;4.68;;;24.40;78.30;;;;;;6160777;23;20010;-94
2021/06/17 07:00:21;;;;;;;5.60;4.07;;;24.30;77.20;;;;;;6156996;23;20455;-95
2021/06/17 07:02:48;;;;;;;4.35;3.90;;;24.30;78.20;;;;;;6161504;23;19998;-96
2021/06/17 07:05:14;;;;;;;5.38;4.22;;;24.40;77.50;;;;;;6158367;22;20017;-96
2021/06/17 07:07:40;;;;;;;4.22;3.83;;;24.40;77.50;;;;;;6159425;23;20001;-95
2021/06/17 07:10:07;;;;;;;5.45;4.63;;;24.40;77.60;;;;;;6166202;23;20039;-95
2021/06/17 07:12:34;;;;;;;4.88;4.35;;;24.50;77.00;;;;;;6169133;23;20008;-95
2021/06/17 07:15:00;;;;;;;5.07;4.57;;;24.40;76.40;;;;;;6143926;23;20044;-95
2021/06/17 07:17:27;;;;;;;5.03;4.53;;;24.40;75.80;;;;;;6167104;22;20393;-96
2021/06/17 07:19:57;;;;;;;4.85;4.07;;;24.50;76.10;;;;;;6168985;23;20054;-96
2021/06/17 07:22:24;;;;;;;3.67;3.25;;;24.50;75.60;;;;;;6170715;23;19986;-95
2021/06/17 07:24:53;;;;;;;5.45;4.40;;;24.60;76.50;;;;;;6175404;23;20037;-94
2021/06/17 07:27:19;;;;;;;5.05;4.07;;;24.60;75.20;;;;;;6176513;22;20010;-95
2021/06/17 07:29:45;;;;;;;4.63;4.22;;;24.70;74.90;;;;;;6172637;23;20006;-95
2021/06/17 07:32:11;;;;;;;4.07;3.70;;;24.70;74.30;;;;;;6169126;22;20032;-95
2021/06/17 07:34:39;;;;;;;6.47;4.35;;;24.70;74.40;;;;;;6163757;23;20069;-96
2021/06/17 07:37:05;;;;;;;5.80;4.40;;;24.70;73.80;;;;;;6158974;23;20052;-96
2021/06/17 07:39:31;;;;;;;4.38;3.95;;;24.80;74.20;;;;;;6159814;23;19998;-95
2021/06/17 07:41:58;;;;;;;4.90;4.40;;;24.90;74.10;;;;;;6164010;23;20002;-96
2021/06/17 07:44:24;;;;;;;4.43;4.03;;;25.00;72.60;;;;;;6166030;22;20002;-94
2021/06/17 07:46:50;;;;;;;4.07;3.72;;;25.00;72.90;;;;;;6165580;22;20013;-94
2021/06/17 07:49:19;;;;;;;4.30;3.90;;;25.10;72.70;;;;;;6168044;23;20001;-95
2021/06/17 07:51:46;;;;;;;4.10;3.70;;;25.20;72.40;;;;;;6164503;22;20002;-94
2021/06/17 07:54:18;;;;;;;5.05;3.50;;;25.40;72.10;;;;;;6166498;23;20009;-94
2021/06/17 07:56:48;;;;;;;4.97;4.03;;;25.50;71.90;;;;;;6169956;23;20056;-94
2021/06/17 07:59:18;;;;;;;4.50;4.10;;;25.60;71.40;;;;;;6171150;23;20005;-95
2021/06/17 08:01:46;;;;;;;5.32;4.40;;;25.50;71.20;;;;;;6170560;23;19998;-96
2021/06/17 08:04:14;;;;;;;6.55;4.53;;;25.50;70.40;;;;;;6175250;23;19989;-95
2021/06/17 08:06:45;;;;;;;3.55;3.25;;;25.40;70.60;;;;;;6171129;23;20083;-96
2021/06/17 08:09:18;;;;;;;4.97;4.47;;;25.40;70.90;;;;;;6171202;23;20002;-95
2021/06/17 08:11:48;;;;;;;3.88;3.58;;;25.40;71.30;;;;;;6168139;23;20006;-94
2021/06/17 08:14:18;;;;;;;4.50;4.03;;;25.50;71.40;;;;;;6171130;22;20005;-96
2021/06/17 08:16:46;;;;;;;4.80;4.30;;;25.60;71.20;;;;;;6170669;22;20010;-96
2021/06/17 08:19:12;;;;;;;5.15;3.88;;;25.70;71.00;;;;;;6170105;23;20028;-95
2021/06/17 08:21:38;;;;;;;4.32;3.92;;;25.80;70.90;;;;;;6169511;22;20005;-96
2021/06/17 08:24:08;;;;;;;4.53;4.13;;;25.90;70.50;;;;;;6167578;22;20040;-96
2021/06/17 08:26:35;;;;;;;5.45;4.45;;;25.90;70.30;;;;;;6140098;23;20010;-91
2021/06/17 08:29:01;;;;;;;4.97;4.32;;;25.90;70.00;;;;;;6150402;23;20380;-90
2021/06/17 08:31:31;;;;;;;5.10;4.60;;;26.00;70.20;;;;;;6165138;23;19998;-95
2021/06/17 08:33:57;;;;;;;4.43;4.03;;;26.00;70.00;;;;;;6165733;23;20070;-95
2021/06/17 08:36:28;;;;;;;4.43;4.03;;;26.10;70.50;;;;;;6166223;22;20021;-95
2021/06/17 08:38:56;;;;;;;4.25;3.85;;;26.20;70.40;;;;;;6168426;23;20089;-94
2021/06/17 08:41:25;;;;;;;5.88;3.70;;;26.20;70.30;;;;;;6169685;23;20086;-96
2021/06/17 08:43:51;;;;;;;4.13;3.72;;;26.30;70.50;;;;;;6168170;22;20005;-95
2021/06/17 08:46:18;;;;;;;5.65;4.18;;;26.40;70.40;;;;;;6164092;23;20004;-95
2021/06/17 08:48:44;;;;;;;5.03;4.55;;;26.60;69.80;;;;;;6162495;22;20006;-96
2021/06/17 08:51:13;;;;;;;4.90;4.40;;;26.60;69.70;;;;;;6167484;23;20035;-95
2021/06/17 08:53:42;;;;;;;5.10;4.60;;;26.60;69.60;;;;;;6168606;23;19990;-96
2021/06/17 08:56:11;;;;;;;4.68;4.28;;;26.60;69.30;;;;;;6169709;23;20005;-96
2021/06/17 08:58:36;;;;;;;4.82;4.38;;;26.70;68.90;;;;;;6166515;22;20017;-96
2021/06/17 09:01:13;;;;;;;4.75;4.35;;;26.50;69.90;;;;;;6163480;23;20478;-96
2021/06/17 09:03:40;;;;;;;4.90;4.40;;;26.60;69.80;;;;;;6164108;22;20028;-95
2021/06/17 09:06:09;;;;;;;5.10;4.60;;;26.60;70.30;;;;;;6163877;23;20009;-95
2021/06/17 09:08:35;;;;;;;10.73;5.30;;;26.60;69.90;;;;;;6161244;23;20131;-96
2021/06/17 09:11:05;;;;;;;5.03;4.53;;;26.60;69.40;;;;;;6166420;23;20012;-95
2021/06/17 09:13:34;;;;;;;4.97;4.47;;;26.50;69.40;;;;;;6166569;22;20006;-95
2021/06/17 09:16:01;;;;;;;5.22;4.72;;;26.50;69.50;;;;;;6164567;23;20001;-96
2021/06/17 09:18:34;;;;;;;5.80;5.20;;;26.50;70.20;;;;;;6163547;22;20037;-96
2021/06/17 09:21:06;;;;;;;6.20;5.45;;;26.60;69.20;;;;;;6161221;22;20092;-95
2021/06/17 09:23:33;;;;;;;5.63;5.13;;;26.70;68.10;;;;;;6162279;23;19997;-96
2021/06/17 09:26:06;;;;;;;5.47;4.97;;;26.70;68.00;;;;;;6164591;23;20100;-95
2021/06/17 09:28:49;;;;;;;5.18;4.60;;;26.60;68.00;;;;;;6163918;23;20006;-96
2021/06/17 09:31:26;;;;;;;5.30;4.72;;;26.60;68.30;;;;;;6162737;23;20001;-96
2021/06/17 09:33:54;;;;;;;4.95;4.53;;;26.70;68.20;;;;;;6165433;22;20012;-96
2021/06/17 09:36:29;;;;;;;4.80;4.40;;;26.70;68.60;;;;;;6166591;23;19998;-94
2021/06/17 09:38:58;;;;;;;5.82;4.97;;;26.80;68.50;;;;;;6169560;23;19998;-95
2021/06/17 09:41:49;;;;;;;5.82;4.70;;;26.90;68.10;;;;;;6192314;23;20012;-94
2021/06/17 09:44:47;;;;;;;5.90;5.40;;;27.00;67.70;;;;;;6173068;22;20235;-96
2021/06/17 09:47:58;;;;;;;6.25;4.80;;;27.10;66.50;;;;;;6150836;23;20001;-96
2021/06/17 09:50:29;;;;;;;5.32;4.82;;;27.00;67.20;;;;;;6161458;23;20006;-95
2021/06/17 09:58:42;;;;;;;4.95;4.35;;;27.20;66.60;;;;;;6191983;23;20182;31
2021/06/17 10:03:41;;;;;;;5.93;5.35;;;27.20;67.00;;;;;;6196368;22;20242;-95
2021/06/17 10:06:34;;;;;;;5.07;4.63;;;27.30;66.90;;;;;;6160052;22;20025;-96
2021/06/17 10:09:06;;;;;;;5.78;5.18;;;27.40;67.00;;;;;;6150912;23;20025;-95
2021/06/17 10:11:36;;;;;;;6.03;5.43;;;27.50;66.80;;;;;;6170371;22;20014;-96
2021/06/17 10:14:29;;;;;;;5.63;4.88;;;27.50;66.50;;;;;;6160021;23;20021;-96
2021/06/17 10:25:00;;;;;;;5.18;4.57;;;27.90;65.00;;;;;;6189482;23;20127;-95
2021/06/17 10:27:49;;;;;;;6.50;5.15;;;28.00;65.70;;;;;;6171761;22;20021;-95
2021/06/17 10:30:19;;;;;;;5.40;4.90;;;28.00;64.80;;;;;;6155117;23;20013;-95
2021/06/17 10:32:46;;;;;;;6.15;5.55;;;28.10;65.10;;;;;;6169613;23;20001;-94
2021/06/17 10:35:34;;;;;;;5.95;5.32;;;28.20;64.20;;;;;;6170844;23;19990;-96
2021/06/17 10:38:05;;;;;;;7.63;5.10;;;28.30;63.10;;;;;;6170669;23;20013;-95
2021/06/17 10:40:44;;;;;;;5.78;5.28;;;28.30;63.80;;;;;;6161558;23;19997;-96
2021/06/17 10:43:26;;;;;;;5.35;4.53;;;28.40;63.70;;;;;;6147226;23;20001;-96
2021/06/17 10:48:43;;;;;;;;;;;28.40;63.30;;;;;;6197444;23;20020;-94
2021/06/17 10:52:19;;;;;;;6.60;5.63;;;28.30;62.10;;;;;;6201734;22;19914;-96
2021/06/17 10:55:17;;;;;;;5.78;5.22;;;28.30;62.40;;;;;;6167963;22;20043;-95
2021/06/17 11:06:03;;;;;;;8.10;5.97;;;28.50;63.10;;;;;;6211035;22;20019;-94
2021/06/17 11:08:30;;;;;;;5.90;5.40;;;28.40;63.50;;;;;;6191680;22;20009;-96
2021/06/17 11:16:08;;;;;;;6.13;5.63;;;28.70;63.10;;;;;;6185685;22;20024;-93
2021/06/17 11:21:22;;;;;;;7.82;5.40;;;28.70;62.30;;;;;;6172725;22;20033;-96
2021/06/17 11:29:38;;;;;;;4.95;4.45;;;28.70;61.20;;;;;;6195160;22;20067;-93
2021/06/17 11:32:27;;;;;;;6.13;5.50;;;28.80;61.80;;;;;;6209141;23;20072;-95
2021/06/17 11:34:55;;;;;;;7.70;4.57;;;29.00;60.80;;;;;;6203260;23;19997;-95
2021/06/17 11:37:27;;;;;;;5.57;4.70;;;29.10;61.40;;;;;;6199658;22;20043;-93
2021/06/17 11:39:53;;;;;;;5.10;4.60;;;29.10;60.80;;;;;;6195637;23;20021;-96
2021/06/17 11:42:21;;;;;;;7.15;5.60;;;29.20;60.80;;;;;;6203283;22;20016;-95
2021/06/17 11:48:15;;;;;;;5.75;5.15;;;29.30;60.10;;;;;;6146067;22;20601;31
2021/06/17 11:50:46;;;;;;;6.10;5.50;;;29.30;59.90;;;;;;6142142;23;20086;-96
2021/06/17 11:55:51;;;;;;;5.43;4.93;;;29.20;59.40;;;;;;6199076;22;20039;-93
2021/06/17 12:03:28;;;;;;;4.93;4.32;;;29.40;58.60;;;;;;6183477;22;20120;-95
2021/06/17 12:06:25;;;;;;;9.63;4.93;;;29.50;58.40;;;;;;6192593;23;20025;-96
2021/06/17 12:09:10;;;;;;;6.05;5.53;;;29.60;57.20;;;;;;6184191;22;20028;-94
2021/06/17 12:11:37;;;;;;;5.95;5.35;;;29.60;58.20;;;;;;6171952;22;20032;-94
2021/06/17 12:14:04;;;;;;;5.65;5.15;;;29.70;58.70;;;;;;6205337;23;20037;-95
2021/06/17 12:16:31;;;;;;;5.18;4.68;;;30.00;58.30;;;;;;6177706;22;20103;-96
2021/06/17 12:21:38;;;;;;;5.50;5.00;;;30.50;57.60;;;;;;6200653;23;20046;-96
2021/06/17 12:24:12;;;;;;;6.57;5.97;;;30.80;57.70;;;;;;6152005;22;20025;-96
2021/06/17 12:29:14;;;;;;;5.95;5.35;;;30.90;56.50;;;;;;6193239;23;20035;-95
2021/06/17 12:31:56;;;;;;;7.32;5.05;;;31.10;56.30;;;;;;6164321;23;20002;-95
2021/06/17 12:44:41;;;;;;;6.07;5.55;;;32.20;52.50;;;;;;6201744;22;20074;-95
2021/06/17 12:53:59;;;;;;;6.88;5.22;;;31.70;53.70;;;;;;6205256;23;20020;-95
2021/06/17 12:56:27;;;;;;;5.88;5.35;;;31.50;54.20;;;;;;6151352;23;20001;-93
2021/06/17 12:59:53;;;;;;;;;;;;;;;;;;;;;
2021/06/17 13:02:52;;;;;;;5.30;4.80;;;31.30;54.70;;;;;;6117514;23;20033;-90
2021/06/17 13:05:52;;;;;;;5.30;4.80;;;31.10;54.10;;;;;;6163509;23;20032;-93
2021/06/17 13:11:41;;;;;;;5.93;5.00;;;31.80;53.50;;;;;;6188328;23;20039;-91
2021/06/17 13:14:10;;;;;;;5.25;4.75;;;32.30;53.80;;;;;;6155610;23;20008;-89
2021/06/17 13:20:04;;;;;;;4.30;3.90;;;32.20;52.70;;;;;;6181942;23;20046;-90
2021/06/17 13:26:32;;;;;;;5.80;5.05;;;31.80;52.80;;;;;;6181916;23;20024;-90
2021/06/17 13:29:03;;;;;;;6.57;5.50;;;31.50;53.10;;;;;;6181079;22;20020;-91
2021/06/17 13:31:34;;;;;;;5.47;4.97;;;31.50;53.50;;;;;;6181716;22;20008;-91
2021/06/17 13:34:13;;;;;;;8.13;4.88;;;31.60;53.30;;;;;;6180984;23;20037;-91
2021/06/17 13:36:39;;;;;;;5.68;4.57;;;31.60;52.90;;;;;;6130872;23;20146;-91
2021/06/17 13:39:15;;;;;;;5.47;4.97;;;31.60;52.80;;;;;;6153940;23;20006;-90
2021/06/17 13:42:18;;;;;;;4.80;4.30;;;31.60;52.70;;;;;;6130820;23;20362;-91
2021/06/17 13:44:52;;;;;;;5.13;4.73;;;31.70;52.80;;;;;;6156183;22;20010;-93
2021/06/17 13:47:25;;;;;;;5.18;4.72;;;32.00;52.70;;;;;;6242121;23;20032;-91
2021/06/17 13:49:51;;;;;;;5.10;4.70;;;32.20;51.90;;;;;;6242527;23;20489;-92
2021/06/17 13:52:23;;;;;;;4.80;4.40;;;32.10;51.80;;;;;;6216345;23;20008;-93
2021/06/17 13:54:59;;;;;;;6.70;4.82;;;31.90;51.70;;;;;;6242445;23;20058;-91
2021/06/17 13:57:28;;;;;;;5.95;4.82;;;31.80;52.20;;;;;;6219142;23;20124;-92
2021/06/17 14:00:01;;;;;;;5.38;4.88;;;32.00;52.80;;;;;;6242085;23;20023;-92
2021/06/17 14:02:35;;;;;;;5.18;4.68;;;32.50;52.30;;;;;;6216850;23;19997;-91
2021/06/17 14:05:00;;;;;;;6.05;5.53;;;32.80;51.80;;;;;;6215868;23;20001;-91
2021/06/17 14:07:38;;;;;;;5.30;4.80;;;33.10;51.70;;;;;;6242623;23;20007;-91
2021/06/17 14:10:09;;;;;;;6.45;5.75;;;33.40;51.50;;;;;;6243337;23;20088;-94
2021/06/17 14:12:40;;;;;;;7.13;5.07;;;33.80;50.90;;;;;;6216694;23;20015;-93
2021/06/17 14:15:09;;;;;;;6.32;5.72;;;34.00;49.80;;;;;;6242272;23;20428;-92
2021/06/17 14:17:41;;;;;;;5.82;5.32;;;33.90;49.90;;;;;;6229635;23;20016;-92
2021/06/17 14:20:13;;;;;;;5.78;5.28;;;33.90;50.00;;;;;;6154288;22;20451;-94
2021/06/17 14:23:22;;;;;;;6.88;5.63;;;34.30;50.30;;;;;;6155595;23;20009;-92
2021/06/17 14:25:54;;;;;;;5.28;4.78;;;34.80;49.40;;;;;;6154163;23;20016;-92
2021/06/17 14:28:28;;;;;;;5.40;4.88;;;35.20;49.00;;;;;;6178877;23;20505;-92
2021/06/17 14:30:59;;;;;;;5.45;4.68;;;35.30;48.10;;;;;;6180378;23;20088;-92
2021/06/17 14:33:28;;;;;;;5.53;4.95;;;35.40;48.60;;;;;;6155061;23;20414;-91
2021/06/17 14:36:00;;;;;;;5.57;5.10;;;35.60;48.50;;;;;;6156480;23;20009;-94
2021/06/17 14:38:30;;;;;;;5.90;5.38;;;35.90;47.20;;;;;;6155628;22;20070;-94